createdAt,value
2019-03-01T00:00:15.472Z,99.90
2019-03-01T00:02:46.459Z,99.90
2019-03-01T00:05:48.096Z,99.90
2019-03-01T00:08:18.831Z,99.90
2019-03-01T00:11:09.407Z,99.90
2019-03-01T00:13:58.182Z,99.90
2019-03-01T00:16:50.197Z,99.90
2019-03-01T00:19:43.670Z,99.90
2019-03-01T00:22:27.305Z,99.90
2019-03-01T00:25:02.237Z,99.90
2019-03-01T00:27:46.877Z,99.90
2019-03-01T00:30:52.909Z,99.90
2019-03-01T00:33:34.180Z,99.90
2019-03-01T00:36:32.164Z,99.90
2019-03-01T00:39:22.532Z,99.90
2019-03-01T00:42:10.078Z,99.90
2019-03-01T00:44:41.572Z,99.90
2019-03-01T00:47:12.703Z,99.90
2019-03-01T00:49:42.590Z,99.90
2019-03-01T00:52:12.097Z,99.90
2019-03-01T00:54:41.608Z,99.90
2019-03-01T00:57:11.036Z,99.90
2019-03-01T00:59:40.486Z,99.90
2019-03-01T01:02:09.913Z,99.90
2019-03-01T01:04:39.404Z,99.90
2019-03-01T01:07:08.768Z,99.90
2019-03-01T01:09:38.128Z,99.90
2019-03-01T01:12:07.634Z,99.90
2019-03-01T01:14:37.003Z,99.90
2019-03-01T01:17:06.360Z,99.90
2019-03-01T01:19:35.711Z,99.90
2019-03-01T01:22:05.338Z,99.90
2019-03-01T01:24:34.754Z,99.90
2019-03-01T01:27:04.189Z,99.90
2019-03-01T01:29:33.626Z,99.90
2019-03-01T01:32:03.036Z,99.90
2019-03-01T01:34:32.390Z,99.90
2019-03-01T01:37:01.770Z,99.90
2019-03-01T01:39:31.125Z,99.90
2019-03-01T01:42:00.623Z,99.90
2019-03-01T01:44:29.989Z,99.90
2019-03-01T01:46:59.344Z,99.90
2019-03-01T01:49:28.694Z,99.90
2019-03-01T01:51:58.057Z,99.90
2019-03-01T01:54:27.491Z,99.90
2019-03-01T01:56:56.987Z,99.90
2019-03-01T01:59:26.348Z,99.90
2019-03-01T02:01:55.789Z,99.90
2019-03-01T02:04:25.151Z,99.90
2019-03-01T02:06:55.685Z,99.90
2019-03-01T02:09:25.553Z,99.90
2019-03-01T02:11:55.455Z,99.90
2019-03-01T02:14:25.025Z,99.90
2019-03-01T02:16:54.448Z,99.90
2019-03-01T02:19:23.890Z,99.90
2019-03-01T02:21:53.239Z,99.90
2019-03-01T02:24:22.597Z,99.90
2019-03-01T02:26:56.229Z,99.90
2019-03-01T02:29:25.589Z,99.90
2019-03-01T02:31:55.122Z,99.90
2019-03-01T02:34:24.486Z,99.90
2019-03-01T02:36:53.875Z,99.90
2019-03-01T02:39:23.223Z,99.90
2019-03-01T02:41:52.597Z,99.90
2019-03-01T02:44:21.990Z,99.90
2019-03-01T02:46:51.359Z,99.90
2019-03-01T02:49:20.829Z,99.90
2019-03-01T02:51:50.344Z,99.90
2019-03-01T02:54:19.715Z,99.90
2019-03-01T02:56:49.086Z,99.90
2019-03-01T02:59:18.447Z,99.90
2019-03-01T03:01:47.931Z,99.90
2019-03-01T03:04:17.390Z,99.90
2019-03-01T03:06:51.278Z,99.90
2019-03-01T03:09:20.629Z,99.90
2019-03-01T03:11:50.011Z,99.90
2019-03-01T03:14:19.442Z,99.90
2019-03-01T03:16:48.823Z,99.90
2019-03-01T03:19:18.251Z,99.90
2019-03-01T03:21:47.637Z,99.90
2019-03-01T03:24:17.009Z,99.90
2019-03-01T03:26:48.492Z,99.90
2019-03-01T03:29:17.595Z,99.90
2019-03-01T03:31:47.036Z,99.90
2019-03-01T03:34:16.506Z,99.90
2019-03-01T03:36:45.933Z,99.90
2019-03-01T03:39:15.374Z,99.90
2019-03-01T03:41:44.824Z,99.90
2019-03-01T03:44:14.335Z,99.90
2019-03-01T03:46:44.812Z,99.90
2019-03-01T03:49:14.237Z,99.90
2019-03-01T03:51:56.358Z,99.90
2019-03-01T03:54:25.734Z,99.90
2019-03-01T03:56:55.108Z,99.90
2019-03-01T03:59:24.553Z,99.90
2019-03-01T04:01:54.121Z,99.90
2019-03-01T04:04:23.624Z,99.90
2019-03-01T04:06:53.073Z,99.90
2019-03-01T04:09:22.501Z,99.90
2019-03-01T04:11:51.887Z,99.90
2019-03-01T04:14:21.347Z,99.90
2019-03-01T04:16:50.739Z,99.90
2019-03-01T04:19:20.107Z,99.90
2019-03-01T04:21:49.465Z,99.90
2019-03-01T04:24:18.832Z,99.90
2019-03-01T04:26:48.280Z,99.90
2019-03-01T04:29:17.629Z,99.90
2019-03-01T04:31:46.993Z,99.90
2019-03-01T04:34:16.542Z,99.90
2019-03-01T04:36:45.939Z,99.90
2019-03-01T04:39:15.313Z,99.90
2019-03-01T04:41:44.776Z,99.90
2019-03-01T04:44:14.200Z,99.90
2019-03-01T04:46:43.573Z,99.90
2019-03-01T04:49:12.952Z,99.90
2019-03-01T04:51:42.305Z,99.90
2019-03-01T04:54:11.669Z,99.90
2019-03-01T04:56:41.044Z,99.90
2019-03-01T04:59:10.409Z,99.90
2019-03-01T05:01:39.821Z,99.90
2019-03-01T05:04:09.193Z,99.90
2019-03-01T05:06:38.570Z,99.90
2019-03-01T05:09:08.260Z,99.90
2019-03-01T05:11:37.743Z,99.90
2019-03-01T05:14:07.102Z,99.90
2019-03-01T05:16:36.488Z,99.90
2019-03-01T05:19:05.950Z,99.90
2019-03-01T05:21:35.333Z,99.90
2019-03-01T05:24:05.449Z,99.90
2019-03-01T05:26:34.874Z,99.90
2019-03-01T05:29:04.263Z,99.90
2019-03-01T05:31:33.621Z,99.90
2019-03-01T05:34:02.981Z,99.90
2019-03-01T05:36:32.428Z,99.90
2019-03-01T05:39:01.811Z,99.90
2019-03-01T05:41:32.833Z,99.90
2019-03-01T05:44:02.328Z,99.90
2019-03-01T05:46:31.768Z,99.90
2019-03-01T05:49:01.147Z,99.90
2019-03-01T05:51:30.569Z,99.90
2019-03-01T05:53:59.972Z,99.90
2019-03-01T05:56:29.339Z,99.90
2019-03-01T05:59:16.824Z,99.90
2019-03-01T06:01:58.108Z,99.90
2019-03-01T06:04:30.949Z,99.90
2019-03-01T06:07:21.653Z,99.90
2019-03-01T06:10:10.998Z,99.90
2019-03-01T06:12:52.640Z,99.90
2019-03-01T06:15:43.084Z,99.90
2019-03-01T06:18:32.334Z,99.90
2019-03-01T06:21:13.513Z,99.90
2019-03-01T06:24:03.785Z,99.90
2019-03-01T06:29:40.907Z,99.90
2019-03-01T06:32:35.849Z,99.90
2019-03-01T06:35:23.313Z,99.90
2019-03-01T06:38:47.101Z,99.90
2019-03-01T06:41:35.937Z,99.90
2019-03-01T06:44:36.617Z,99.90
2019-03-01T06:47:24.357Z,99.90
2019-03-01T08:16:33.056Z,99.90
2019-03-01T08:19:02.482Z,99.90
2019-03-01T08:21:31.843Z,99.90
2019-03-01T08:24:01.218Z,99.90
2019-03-01T08:26:30.699Z,99.90
2019-03-01T08:29:01.648Z,99.90
2019-03-01T08:31:31.012Z,99.90
2019-03-01T08:34:00.359Z,99.90
2019-03-01T08:36:29.718Z,99.90
2019-03-01T08:39:00.989Z,99.90
2019-03-01T08:41:31.234Z,99.90
2019-03-01T08:44:00.585Z,99.90
2019-03-01T08:46:30.007Z,99.90
2019-03-01T08:48:59.365Z,99.90
2019-03-01T08:51:29.103Z,99.90
2019-03-01T08:53:58.457Z,99.90
2019-03-01T08:56:27.812Z,99.90
2019-03-01T08:58:57.271Z,99.90
2019-03-01T09:01:26.759Z,99.90
2019-03-01T09:03:59.142Z,99.90
2019-03-01T09:06:29.630Z,99.90
2019-03-01T09:08:59.001Z,99.90
2019-03-01T09:11:30.503Z,99.90
2019-03-01T09:13:59.420Z,99.90
2019-03-01T09:16:28.845Z,99.90
2019-03-01T09:18:58.347Z,99.90
2019-03-01T09:21:28.209Z,99.90
2019-03-01T09:23:58.382Z,99.90
2019-03-01T09:26:28.965Z,99.90
2019-03-01T09:28:59.428Z,99.90
2019-03-01T09:31:28.837Z,99.90
2019-03-01T09:33:58.392Z,99.90
2019-03-01T09:36:29.473Z,99.90
2019-03-01T09:38:58.839Z,99.90
2019-03-01T09:41:28.281Z,99.90
2019-03-01T09:43:59.732Z,99.90
2019-03-01T09:46:30.413Z,99.90
2019-03-01T09:48:59.750Z,99.90
2019-03-01T09:51:29.109Z,99.90
2019-03-01T09:53:58.472Z,99.90
2019-03-01T09:56:27.867Z,99.90
2019-03-01T09:58:57.337Z,99.90
2019-03-01T10:01:26.851Z,99.90
2019-03-01T10:03:57.428Z,99.90
2019-03-01T10:06:26.861Z,99.90
2019-03-01T10:08:56.291Z,99.90
2019-03-01T10:11:25.719Z,99.90
2019-03-01T10:13:55.087Z,99.90
2019-03-01T10:16:24.568Z,99.90
2019-03-01T10:18:53.969Z,99.90
2019-03-01T10:21:23.564Z,99.90
2019-03-01T10:23:52.921Z,99.90
2019-03-01T10:26:22.331Z,99.90
2019-03-01T10:28:52.198Z,99.90
2019-03-01T10:31:21.683Z,99.90
2019-03-01T10:33:51.022Z,99.90
2019-03-01T10:36:20.414Z,99.90
2019-03-01T10:38:49.799Z,99.90
2019-03-01T10:41:19.628Z,99.90
2019-03-01T10:43:49.049Z,99.90
2019-03-01T10:46:18.431Z,99.90
2019-03-01T10:48:47.849Z,99.90
2019-03-01T10:51:17.212Z,99.90
2019-03-01T10:53:47.908Z,99.90
2019-03-01T10:56:17.497Z,99.90
2019-03-01T10:58:46.892Z,99.90
2019-03-01T11:01:16.404Z,99.90
2019-03-01T11:03:49.041Z,99.90
2019-03-01T11:06:16.918Z,99.90
2019-03-01T11:08:46.428Z,99.90
2019-03-01T11:11:15.787Z,99.90
2019-03-01T11:13:45.152Z,99.90
2019-03-01T11:16:14.508Z,99.90
2019-03-01T11:18:43.900Z,99.90
2019-03-01T11:21:13.607Z,99.90
2019-03-01T11:23:43.306Z,99.90
2019-03-01T11:26:12.698Z,99.90
2019-03-01T11:28:42.045Z,99.90
2019-03-01T11:31:11.415Z,99.90
2019-03-01T11:33:40.948Z,99.90
2019-03-01T11:36:10.530Z,99.90
2019-03-01T11:38:39.903Z,99.90
2019-03-01T11:41:09.372Z,99.90
2019-03-01T11:43:38.808Z,99.90
2019-03-01T11:46:08.237Z,99.90
2019-03-01T11:48:37.681Z,99.90
2019-03-01T11:51:07.191Z,99.90
2019-03-01T11:53:36.676Z,99.90
2019-03-01T11:56:06.699Z,99.90
2019-03-01T11:58:36.174Z,99.90
2019-03-01T12:01:06.669Z,99.90
2019-03-01T12:03:36.105Z,99.90
2019-03-01T12:06:06.197Z,99.90
2019-03-01T12:08:35.705Z,99.90
2019-03-01T12:11:05.898Z,99.90
2019-03-01T12:13:36.438Z,99.90
2019-03-01T12:16:08.509Z,99.90
2019-03-01T12:18:37.937Z,99.70
2019-03-01T12:21:07.383Z,99.50
2019-03-01T12:23:38.233Z,98.40
2019-03-01T12:26:07.717Z,98.40
2019-03-01T12:28:37.085Z,98.60
2019-03-01T12:31:06.433Z,97.80
2019-03-01T12:33:35.830Z,98.30
2019-03-01T12:36:06.041Z,98.00
2019-03-01T12:38:35.491Z,96.90
2019-03-01T12:41:05.288Z,97.60
2019-03-01T12:43:34.661Z,96.60
2019-03-01T12:46:04.088Z,96.90
2019-03-01T12:48:33.513Z,96.70
2019-03-01T12:51:02.867Z,98.00
2019-03-01T12:53:34.198Z,98.20
2019-03-01T12:56:03.662Z,97.80
2019-03-01T12:58:33.096Z,97.40
2019-03-01T13:01:02.535Z,98.40
2019-03-01T13:03:32.025Z,98.10
2019-03-01T13:06:03.776Z,98.40
2019-03-01T13:08:32.587Z,98.00
2019-03-01T13:11:02.032Z,97.50
2019-03-01T13:13:34.586Z,98.10
2019-03-01T13:16:02.560Z,98.00
2019-03-01T13:18:31.974Z,97.80
2019-03-01T13:21:01.326Z,96.50
2019-03-01T13:23:30.726Z,97.00
2019-03-01T13:26:02.870Z,97.00
2019-03-01T13:28:31.602Z,96.40
2019-03-01T13:31:01.012Z,96.20
2019-03-01T13:33:30.370Z,95.60
2019-03-01T13:36:03.651Z,96.40
2019-03-01T13:38:33.899Z,95.80
2019-03-01T13:41:02.988Z,95.80
2019-03-01T13:43:33.251Z,96.70
2019-03-01T13:46:02.766Z,96.20
2019-03-01T13:48:32.206Z,96.40
2019-03-01T13:51:01.534Z,96.80
2019-03-01T13:53:33.328Z,95.90
2019-03-01T13:56:02.417Z,95.70
2019-03-01T13:58:31.981Z,96.40
2019-03-01T14:01:02.479Z,96.10
2019-03-01T14:03:32.389Z,96.90
2019-03-01T14:06:02.274Z,96.00
2019-03-01T14:08:31.804Z,95.90
2019-03-01T14:11:01.234Z,96.20
2019-03-01T14:13:30.617Z,96.70
2019-03-01T14:15:59.972Z,96.30
2019-03-01T14:18:29.355Z,97.00
2019-03-01T14:20:59.149Z,96.90
2019-03-01T14:23:28.646Z,96.10
2019-03-01T14:25:57.999Z,97.00
2019-03-01T14:28:27.381Z,97.50
2019-03-01T14:30:56.787Z,97.20
2019-03-01T14:33:26.252Z,97.50
2019-03-01T14:35:55.618Z,97.80
2019-03-01T14:38:26.709Z,97.60
2019-03-01T14:40:59.421Z,98.00
2019-03-01T14:43:27.267Z,98.90
2019-03-01T14:45:56.859Z,99.00
2019-03-01T14:48:26.261Z,99.20
2019-03-01T14:50:55.693Z,98.60
2019-03-01T14:53:25.139Z,98.50
2019-03-01T14:55:58.950Z,98.90
2019-03-01T14:58:36.569Z,98.30
2019-03-01T15:01:17.418Z,98.30
2019-03-01T15:03:49.730Z,98.00
2019-03-01T15:06:19.142Z,98.00
2019-03-01T15:08:49.203Z,97.30
2019-03-01T15:11:19.312Z,98.00
2019-03-01T15:13:48.785Z,97.50
2019-03-01T15:16:18.524Z,97.90
2019-03-01T15:18:48.084Z,98.30
2019-03-01T15:21:17.554Z,97.80
2019-03-01T15:23:46.901Z,98.00
2019-03-01T15:26:16.334Z,98.40
2019-03-01T15:28:55.436Z,98.00
2019-03-01T15:31:24.345Z,98.50
2019-03-01T15:33:53.756Z,98.00
2019-03-01T15:36:23.184Z,97.90
2019-03-01T15:38:53.094Z,98.30
2019-03-01T15:41:23.628Z,98.40
2019-03-01T15:43:54.555Z,98.60
2019-03-01T15:46:23.941Z,98.20
2019-03-01T15:48:53.298Z,98.00
2019-03-01T15:51:22.755Z,98.10
2019-03-01T15:53:52.204Z,98.50
2019-03-01T15:56:22.151Z,98.60
2019-03-01T15:58:51.850Z,98.20
2019-03-01T16:01:21.283Z,98.20
2019-03-01T16:03:50.724Z,97.70
2019-03-01T16:06:22.240Z,98.30
2019-03-01T16:08:51.372Z,97.80
2019-03-01T16:11:20.872Z,98.00
2019-03-01T16:13:50.379Z,97.80
2019-03-01T16:16:19.887Z,98.70
2019-03-01T16:18:49.389Z,98.50
2019-03-01T16:21:18.890Z,98.50
2019-03-01T16:23:48.408Z,98.70
2019-03-01T16:26:18.890Z,98.50
2019-03-01T16:28:48.342Z,98.40
2019-03-01T16:31:17.760Z,97.80
2019-03-01T16:33:47.346Z,98.10
2019-03-01T16:36:18.420Z,98.50
2019-03-01T16:38:48.899Z,98.20
2019-03-01T16:41:18.495Z,98.50
2019-03-01T16:43:47.855Z,98.80
2019-03-01T16:46:17.295Z,99.30
2019-03-01T16:48:48.787Z,98.70
2019-03-01T16:51:21.422Z,98.60
2019-03-01T16:53:54.907Z,98.30
2019-03-01T16:56:26.526Z,98.30
2019-03-01T16:58:55.745Z,98.30
2019-03-01T17:01:26.054Z,98.70
2019-03-01T17:03:56.186Z,98.40
2019-03-01T17:06:25.680Z,98.60
2019-03-01T17:08:55.025Z,98.90
2019-03-01T17:11:24.389Z,99.10
2019-03-01T17:13:53.745Z,99.30
2019-03-01T17:16:23.746Z,99.40
2019-03-01T17:18:54.077Z,99.40
2019-03-01T17:21:23.467Z,99.50
2019-03-01T17:23:54.650Z,99.50
2019-03-01T17:26:26.243Z,99.80
2019-03-01T17:28:59.752Z,99.60
2019-03-01T17:31:27.907Z,99.70
2019-03-01T17:34:00.221Z,99.90
2019-03-01T17:36:29.656Z,99.90
2019-03-01T17:38:59.011Z,99.90
2019-03-01T17:41:28.560Z,99.90
2019-03-01T17:43:57.994Z,99.90
2019-03-01T17:46:29.844Z,99.90
2019-03-01T17:48:58.755Z,99.90
2019-03-01T17:51:28.874Z,99.90
2019-03-01T17:53:58.432Z,99.90
2019-03-01T17:56:27.848Z,99.90
2019-03-01T17:58:57.214Z,99.90
2019-03-01T18:01:26.574Z,99.90
2019-03-01T18:03:57.983Z,99.90
2019-03-01T18:06:27.220Z,99.90
2019-03-01T18:08:56.730Z,99.90
2019-03-01T18:11:26.179Z,99.90
2019-03-01T18:13:56.923Z,99.90
2019-03-01T18:16:26.649Z,99.90
2019-03-01T18:18:57.080Z,99.90
2019-03-01T18:21:26.587Z,99.90
2019-03-01T18:23:56.075Z,99.90
2019-03-01T18:26:25.486Z,99.90
2019-03-01T18:28:54.874Z,99.90
2019-03-01T18:31:24.398Z,99.90
2019-03-01T18:33:57.051Z,99.90
2019-03-01T18:36:28.224Z,99.90
2019-03-01T18:38:55.915Z,99.90
2019-03-01T18:41:27.470Z,99.90
2019-03-01T18:43:56.475Z,99.90
2019-03-01T18:46:26.068Z,99.90
2019-03-01T18:48:55.555Z,99.90
2019-03-01T18:51:24.979Z,99.90
2019-03-01T18:53:54.842Z,99.90
2019-03-01T18:56:25.061Z,99.90
2019-03-01T18:58:55.404Z,99.90
2019-03-01T19:01:26.023Z,99.90
2019-03-01T19:03:55.469Z,99.90
2019-03-01T19:06:24.942Z,99.90
2019-03-01T19:08:54.356Z,99.90
2019-03-01T19:11:24.393Z,99.90
2019-03-01T19:13:58.593Z,99.90
2019-03-01T19:16:28.538Z,99.90
2019-03-01T19:18:58.091Z,99.90
2019-03-01T19:21:27.591Z,99.90
2019-03-01T19:23:57.091Z,99.90
2019-03-01T19:26:26.621Z,99.90
2019-03-01T19:28:59.072Z,99.90
2019-03-01T19:31:27.090Z,99.90
2019-03-01T19:33:56.493Z,99.90
2019-03-01T19:36:29.941Z,99.90
2019-03-01T19:39:08.219Z,99.90
2019-03-01T19:41:40.006Z,99.90
2019-03-01T19:44:15.372Z,99.90
2019-03-01T19:46:47.617Z,99.90
2019-03-01T19:49:19.818Z,99.90
2019-03-01T19:51:56.308Z,99.90
2019-03-01T19:54:27.285Z,99.90
2019-03-01T19:56:57.741Z,99.90
2019-03-01T19:59:27.747Z,99.90
2019-03-01T20:01:57.158Z,99.90
2019-03-01T20:04:26.606Z,99.90
2019-03-01T20:06:57.801Z,99.90
2019-03-01T20:09:27.394Z,99.90
2019-03-01T20:11:59.223Z,99.90
2019-03-01T20:14:30.380Z,99.90
2019-03-01T20:17:00.288Z,99.90
2019-03-01T20:19:29.877Z,99.90
2019-03-01T20:21:59.344Z,99.90
2019-03-01T20:24:33.348Z,99.90
2019-03-01T20:27:03.073Z,99.90
2019-03-01T20:29:33.357Z,99.90
2019-03-01T20:32:04.388Z,99.90
2019-03-01T20:34:37.951Z,99.90
2019-03-01T20:37:07.039Z,99.90
2019-03-01T20:39:38.231Z,99.90
2019-03-01T20:42:09.915Z,99.90
2019-03-01T20:44:39.126Z,99.90
2019-03-01T20:47:11.286Z,99.90
2019-03-01T20:49:40.834Z,99.90
2019-03-01T20:52:11.818Z,99.90
2019-03-01T20:54:44.424Z,99.90
2019-03-01T20:57:14.029Z,99.90
2019-03-01T20:59:46.818Z,99.90
2019-03-01T21:02:16.384Z,99.90
2019-03-01T21:04:53.235Z,99.90
2019-03-01T21:07:18.311Z,99.90
2019-03-01T21:09:47.782Z,99.90
2019-03-01T21:12:17.237Z,99.90
2019-03-01T21:14:46.737Z,99.90
2019-03-01T21:17:20.261Z,99.90
2019-03-01T21:19:50.490Z,99.90
2019-03-01T21:22:21.653Z,99.90
2019-03-01T21:24:52.805Z,99.90
2019-03-01T21:27:22.599Z,99.90
2019-03-01T21:29:53.235Z,99.90
2019-03-01T21:32:22.620Z,99.90
2019-03-01T21:34:52.198Z,99.90
2019-03-01T21:37:23.620Z,99.90
2019-03-01T21:39:55.630Z,99.90
2019-03-01T21:42:25.257Z,99.90
2019-03-01T21:44:54.677Z,99.90
2019-03-01T21:47:24.153Z,99.90
2019-03-01T21:49:53.572Z,99.90
2019-03-01T21:52:22.933Z,99.90
2019-03-01T21:54:53.281Z,99.90
2019-03-01T21:57:22.803Z,99.90
2019-03-01T21:59:53.379Z,99.90
2019-03-01T22:02:22.958Z,99.90
2019-03-01T22:04:55.110Z,99.90
2019-03-01T22:07:24.543Z,99.90
2019-03-01T22:09:56.808Z,99.90
2019-03-01T22:12:25.691Z,99.90
2019-03-01T22:14:55.137Z,99.90
2019-03-01T22:17:24.497Z,99.90
2019-03-01T22:19:53.862Z,99.90
2019-03-01T22:22:23.231Z,99.90
2019-03-01T22:24:52.750Z,99.90
2019-03-01T22:27:25.271Z,99.90
2019-03-01T22:29:53.234Z,99.90
2019-03-01T22:32:22.648Z,99.90
2019-03-01T22:34:52.086Z,99.90
2019-03-01T22:37:24.808Z,99.90
2019-03-01T22:39:52.549Z,99.90
2019-03-01T22:42:21.971Z,99.90
2019-03-01T22:44:51.389Z,99.90
2019-03-01T22:47:20.762Z,99.90
2019-03-01T22:49:50.099Z,99.90
2019-03-01T22:52:19.529Z,99.90
2019-03-01T22:54:48.915Z,99.90
2019-03-01T22:57:22.433Z,99.90
2019-03-01T22:59:49.332Z,99.90
2019-03-01T23:02:20.110Z,99.90
2019-03-01T23:04:49.678Z,99.90
2019-03-01T23:07:19.053Z,99.90
2019-03-01T23:09:48.478Z,99.90
2019-03-01T23:12:19.526Z,99.90
2019-03-01T23:14:48.959Z,99.90
2019-03-01T23:17:18.336Z,99.90
2019-03-01T23:19:51.317Z,99.90
2019-03-01T23:22:18.734Z,99.90
2019-03-01T23:24:49.478Z,99.90
2019-03-01T23:27:18.988Z,99.90
2019-03-01T23:29:50.927Z,99.90
2019-03-01T23:32:19.537Z,99.90
2019-03-01T23:34:49.029Z,99.90
2019-03-01T23:37:18.453Z,99.90
2019-03-01T23:39:47.803Z,99.90
2019-03-01T23:42:17.399Z,99.90
2019-03-01T23:44:48.242Z,99.90
2019-03-01T23:47:19.203Z,99.90
2019-03-01T23:49:49.020Z,99.90
2019-03-01T23:52:19.571Z,99.90
2019-03-01T23:54:49.500Z,99.90
2019-03-01T23:57:18.993Z,99.90
2019-03-01T23:59:48.424Z,99.90
